Time;durP1;ratioP1;P1;durP2;ratioP2;P2;SDS_P1;SDS_P2;PMS_P1;PMS_P2;Temp;Humidity;BMP_temperature;BMP_pressure;BME280_temperature;BME280_humidity;BME280_pressure;Samples;Min_cycle;Max_cycle;Signal;HPM_P1;HPM_P2
2022/02/18 00:01:02;;;;;;;5.63;2.67;;;;;;;;;;5021768;28;20181;-58
2022/02/18 00:03:29;;;;;;;7.27;2.60;;;;;;;;;;5025472;28;20178;-58
2022/02/18 00:05:57;;;;;;;5.80;2.97;;;;;;;;;;5018671;28;20556;-59
2022/02/18 00:08:23;;;;;;;6.47;2.87;;;;;;;;;;5005904;28;20178;-58
2022/02/18 00:10:49;;;;;;;3.93;2.57;;;;;;;;;;5031708;28;20581;-59
2022/02/18 00:13:19;;;;;;;5.50;2.73;;;;;;;;;;5020056;28;20192;-59
2022/02/18 00:15:45;;;;;;;7.30;2.57;;;;;;;;;;5007908;28;20685;-59
2022/02/18 00:18:11;;;;;;;8.33;2.53;;;;;;;;;;5016792;28;20534;-58
2022/02/18 00:20:38;;;;;;;7.77;2.70;;;;;;;;;;5025236;28;20182;-57
2022/02/18 00:23:05;;;;;;;6.40;2.80;;;;;;;;;;5023496;28;20961;-59
2022/02/18 00:25:32;;;;;;;6.50;3.03;;;;;;;;;;5016514;28;20205;-58
2022/02/18 00:28:02;;;;;;;6.60;3.17;;;;;;;;;;5002545;28;20790;-58
2022/02/18 00:30:28;;;;;;;4.83;2.70;;;;;;;;;;5001821;28;20674;-58
2022/02/18 00:32:55;;;;;;;9.17;2.90;;;;;;;;;;5003550;28;20182;-59
2022/02/18 00:35:22;;;;;;;6.90;2.33;;;;;;;;;;5008223;28;20202;-58
2022/02/18 00:37:55;;;;;;;7.13;2.50;;;;;;;;;;5009221;28;20552;-59
2022/02/18 00:40:21;;;;;;;6.73;2.83;;;;;;;;;;4990957;28;20179;-58
2022/02/18 00:42:49;;;;;;;6.17;2.67;;;;;;;;;;5008448;28;20174;-58
2022/02/18 00:45:16;;;;;;;6.33;2.33;;;;;;;;;;4987451;28;20191;-60
2022/02/18 00:47:42;;;;;;;5.87;2.77;;;;;;;;;;5001523;28;20641;-58
2022/02/18 00:50:09;;;;;;;7.87;2.73;;;;;;;;;;5001630;28;20182;-59
2022/02/18 00:52:36;;;;;;;6.67;2.77;;;;;;;;;;5024246;28;20186;-58
2022/02/18 00:55:03;;;;;;;9.07;3.40;;;;;;;;;;5023238;28;20209;-58
2022/02/18 00:57:30;;;;;;;5.80;2.70;;;;;;;;;;5017000;28;20241;-59
2022/02/18 00:59:56;;;;;;;7.40;2.50;;;;;;;;;;5011817;28;20189;-58
2022/02/18 01:02:22;;;;;;;8.33;2.80;;;;;;;;;;5000206;28;20575;-59
2022/02/18 01:04:48;;;;;;;7.70;2.87;;;;;;;;;;5001992;28;20178;-58
2022/02/18 01:07:15;;;;;;;7.43;2.87;;;;;;;;;;5006685;28;20630;-58
2022/02/18 01:09:41;;;;;;;6.80;2.60;;;;;;;;;;4999047;28;20655;-59
2022/02/18 01:12:07;;;;;;;7.13;2.63;;;;;;;;;;5010455;28;20957;-58
2022/02/18 01:14:33;;;;;;;10.83;3.60;;;;;;;;;;5013872;28;20185;-58
2022/02/18 01:16:59;;;;;;;6.93;3.63;;;;;;;;;;5013125;28;20662;-59
2022/02/18 01:19:26;;;;;;;9.13;2.97;;;;;;;;;;5004663;28;20179;-59
2022/02/18 01:21:52;;;;;;;5.90;2.40;;;;;;;;;;5018433;28;20705;-59
2022/02/18 01:24:18;;;;;;;6.53;2.70;;;;;;;;;;4999271;28;20190;-60
2022/02/18 01:26:48;;;;;;;7.30;2.70;;;;;;;;;;5017576;28;20221;-59
2022/02/18 01:29:14;;;;;;;6.73;3.60;;;;;;;;;;5020577;28;20186;-59
2022/02/18 01:31:41;;;;;;;10.83;2.90;;;;;;;;;;5023029;28;20187;-59
2022/02/18 01:34:07;;;;;;;9.07;2.93;;;;;;;;;;5006419;28;20200;-59
2022/02/18 01:36:33;;;;;;;6.80;2.83;;;;;;;;;;5028278;28;20201;-59
2022/02/18 01:38:59;;;;;;;8.67;2.30;;;;;;;;;;4996686;28;20202;-60
2022/02/18 01:41:26;;;;;;;10.27;3.50;;;;;;;;;;5029182;28;20272;-59
2022/02/18 01:43:54;;;;;;;8.40;3.17;;;;;;;;;;5011122;28;20690;-59
2022/02/18 01:46:22;;;;;;;7.07;2.80;;;;;;;;;;5025435;28;20182;-59
2022/02/18 01:48:48;;;;;;;4.07;2.47;;;;;;;;;;5019905;28;20288;-58
2022/02/18 01:51:18;;;;;;;9.83;2.40;;;;;;;;;;5027678;28;20603;-59
2022/02/18 01:53:44;;;;;;;7.10;2.77;;;;;;;;;;5018322;28;20208;-59
2022/02/18 01:56:11;;;;;;;8.33;3.23;;;;;;;;;;5008207;28;20303;-59
2022/02/18 01:58:38;;;;;;;9.37;3.53;;;;;;;;;;5020942;28;20190;-59
2022/02/18 02:01:05;;;;;;;8.77;2.93;;;;;;;;;;5025015;28;20243;-59
2022/02/18 02:03:31;;;;;;;8.00;3.17;;;;;;;;;;5024714;28;20680;-59
2022/02/18 02:05:59;;;;;;;9.20;3.13;;;;;;;;;;5008689;28;20186;-59
2022/02/18 02:08:29;;;;;;;5.93;2.67;;;;;;;;;;5024105;28;20181;-59
2022/02/18 02:10:56;;;;;;;10.03;3.13;;;;;;;;;;5016603;28;20281;-59
2022/02/18 02:13:36;;;;;;;12.00;3.80;;;;;;;;;;5016103;28;20186;-59
2022/02/18 02:16:03;;;;;;;7.33;2.70;;;;;;;;;;5018243;28;20198;-59
2022/02/18 02:18:29;;;;;;;8.23;2.43;;;;;;;;;;5017486;28;20190;-59
2022/02/18 02:20:56;;;;;;;10.67;3.10;;;;;;;;;;5021062;28;20382;-59
2022/02/18 02:23:23;;;;;;;8.70;3.07;;;;;;;;;;5015617;28;20201;-59
2022/02/18 02:25:49;;;;;;;12.83;3.10;;;;;;;;;;5021506;28;20177;-58
2022/02/18 02:28:16;;;;;;;10.07;3.23;;;;;;;;;;5020521;28;20186;-58
2022/02/18 02:30:43;;;;;;;8.90;2.73;;;;;;;;;;5006452;28;20190;-59
2022/02/18 02:33:09;;;;;;;7.83;2.87;;;;;;;;;;5022106;28;20767;-59
2022/02/18 02:35:35;;;;;;;9.67;3.33;;;;;;;;;;5006408;28;20654;-59
2022/02/18 02:38:03;;;;;;;7.63;2.93;;;;;;;;;;5012339;28;20595;-59
2022/02/18 02:40:30;;;;;;;13.43;4.17;;;;;;;;;;5015257;28;20269;-59
2022/02/18 02:42:56;;;;;;;9.60;3.60;;;;;;;;;;5025164;28;20178;-57
2022/02/18 02:45:22;;;;;;;8.27;2.97;;;;;;;;;;5020087;28;20186;-59
2022/02/18 02:47:58;;;;;;;5.60;2.90;;;;;;;;;;5015715;28;20213;-59
2022/02/18 02:50:24;;;;;;;11.20;3.03;;;;;;;;;;5038871;28;20181;-59
2022/02/18 02:52:50;;;;;;;5.37;2.77;;;;;;;;;;5023284;28;20190;-58
2022/02/18 02:55:16;;;;;;;11.67;3.23;;;;;;;;;;5021573;28;20653;-59
2022/02/18 02:57:43;;;;;;;4.53;2.37;;;;;;;;;;5015801;28;20701;-59
2022/02/18 03:00:11;;;;;;;7.83;2.60;;;;;;;;;;5020624;28;20185;-59
2022/02/18 03:02:38;;;;;;;6.63;3.20;;;;;;;;;;4999401;28;20197;-60
2022/02/18 03:05:04;;;;;;;5.90;2.67;;;;;;;;;;5026167;28;20178;-59
2022/02/18 03:07:31;;;;;;;8.13;2.70;;;;;;;;;;5013933;28;20188;-59
2022/02/18 03:09:57;;;;;;;7.27;2.70;;;;;;;;;;5011781;28;20199;-58
2022/02/18 03:12:23;;;;;;;8.37;3.00;;;;;;;;;;5014958;28;20198;-59
2022/02/18 03:14:50;;;;;;;6.13;2.30;;;;;;;;;;5024193;28;20368;-59
2022/02/18 03:17:16;;;;;;;6.80;2.80;;;;;;;;;;5022437;28;20235;-59
2022/02/18 03:19:46;;;;;;;6.07;2.80;;;;;;;;;;5023920;28;20196;-59
2022/02/18 03:22:12;;;;;;;6.90;3.03;;;;;;;;;;5016535;28;20293;-59
2022/02/18 03:24:38;;;;;;;10.00;3.40;;;;;;;;;;5022079;28;20186;-59
2022/02/18 03:27:05;;;;;;;9.00;3.23;;;;;;;;;;5018371;28;20224;-59
2022/02/18 03:29:31;;;;;;;9.23;3.20;;;;;;;;;;5004959;28;20205;-59
2022/02/18 03:31:57;;;;;;;10.97;3.37;;;;;;;;;;5025115;28;20206;-59
2022/02/18 03:34:24;;;;;;;6.00;2.83;;;;;;;;;;5024326;28;20240;-59
2022/02/18 03:36:50;;;;;;;10.73;3.47;;;;;;;;;;5037050;28;20229;-59
2022/02/18 03:39:16;;;;;;;7.37;3.07;;;;;;;;;;4994336;28;20174;-59
2022/02/18 03:41:42;;;;;;;10.53;3.30;;;;;;;;;;5019597;28;20648;-58
2022/02/18 03:44:09;;;;;;;13.53;3.17;;;;;;;;;;5012648;28;20213;-59
2022/02/18 03:46:36;;;;;;;10.80;3.13;;;;;;;;;;5025551;28;20189;-59
2022/02/18 03:49:02;;;;;;;7.83;3.37;;;;;;;;;;4996860;28;20190;-59
2022/02/18 03:51:29;;;;;;;8.13;2.87;;;;;;;;;;5012595;28;20228;-59
2022/02/18 03:53:55;;;;;;;7.80;3.00;;;;;;;;;;5026640;28;20181;-58
2022/02/18 03:56:21;;;;;;;10.60;2.80;;;;;;;;;;5014572;28;20237;-59
2022/02/18 03:58:48;;;;;;;10.20;3.47;;;;;;;;;;5014516;28;20681;-58
2022/02/18 04:01:14;;;;;;;12.20;4.30;;;;;;;;;;5003164;28;20178;-57
2022/02/18 04:03:43;;;;;;;9.33;3.67;;;;;;;;;;5018804;28;20182;-59
2022/02/18 04:06:10;;;;;;;8.53;3.33;;;;;;;;;;5013204;28;20594;-59
2022/02/18 04:08:36;;;;;;;11.60;2.90;;;;;;;;;;5031127;28;20193;-59
2022/02/18 04:11:02;;;;;;;9.93;3.20;;;;;;;;;;5023314;28;20183;-60
2022/02/18 04:13:28;;;;;;;9.07;3.43;;;;;;;;;;5010336;28;20260;-58
2022/02/18 04:15:55;;;;;;;8.87;3.30;;;;;;;;;;5020692;28;20297;-59
2022/02/18 04:18:22;;;;;;;8.47;4.13;;;;;;;;;;5023014;28;20759;-58
2022/02/18 04:20:48;;;;;;;10.90;3.20;;;;;;;;;;5027015;28;20185;-59
2022/02/18 04:23:14;;;;;;;7.70;2.73;;;;;;;;;;5037129;28;20226;-58
2022/02/18 04:25:40;;;;;;;7.60;2.77;;;;;;;;;;5022918;28;20790;-58
2022/02/18 04:28:07;;;;;;;8.93;3.77;;;;;;;;;;5025465;28;20596;-58
2022/02/18 04:30:37;;;;;;;11.80;3.73;;;;;;;;;;5029753;28;20181;-58
2022/02/18 04:33:03;;;;;;;13.27;3.97;;;;;;;;;;5024753;28;20213;-58
2022/02/18 04:35:29;;;;;;;7.47;2.93;;;;;;;;;;5037979;28;20204;-59
2022/02/18 04:37:56;;;;;;;10.83;2.77;;;;;;;;;;5039905;28;20655;-58
2022/02/18 04:40:22;;;;;;;11.50;3.90;;;;;;;;;;5026228;28;20186;-58
2022/02/18 04:42:49;;;;;;;8.17;3.47;;;;;;;;;;5011173;28;20832;-59
2022/02/18 04:45:15;;;;;;;14.43;4.03;;;;;;;;;;5007943;28;20675;-58
2022/02/18 04:47:42;;;;;;;14.20;3.40;;;;;;;;;;5035021;28;20680;-59
2022/02/18 04:50:09;;;;;;;10.50;3.87;;;;;;;;;;5022395;28;20552;-59
2022/02/18 04:52:35;;;;;;;14.43;3.90;;;;;;;;;;5018822;28;20174;-59
2022/02/18 04:55:02;;;;;;;9.73;3.77;;;;;;;;;;5028694;28;20262;-59
2022/02/18 04:57:29;;;;;;;6.83;2.80;;;;;;;;;;5038487;28;20197;-59
2022/02/18 04:59:55;;;;;;;10.67;3.87;;;;;;;;;;5040166;28;20189;-59
2022/02/18 05:02:21;;;;;;;7.97;3.40;;;;;;;;;;5023694;28;20642;-59
2022/02/18 05:04:47;;;;;;;9.53;3.43;;;;;;;;;;5028608;28;20180;-58
2022/02/18 05:07:13;;;;;;;14.90;4.43;;;;;;;;;;5028566;28;20246;-58
2022/02/18 05:09:44;;;;;;;14.53;3.30;;;;;;;;;;5031177;28;20542;-59
2022/02/18 05:12:10;;;;;;;13.37;4.03;;;;;;;;;;5020200;28;20193;-59
2022/02/18 05:14:37;;;;;;;12.73;3.30;;;;;;;;;;5029717;28;20637;-59
2022/02/18 05:17:03;;;;;;;9.20;3.23;;;;;;;;;;5008522;28;20218;-59
2022/02/18 05:19:30;;;;;;;12.23;4.60;;;;;;;;;;5023549;28;20614;-59
2022/02/18 05:21:56;;;;;;;11.83;3.63;;;;;;;;;;5016023;28;20170;-59
2022/02/18 05:24:22;;;;;;;11.83;4.60;;;;;;;;;;5024352;28;20190;-58
2022/02/18 05:26:49;;;;;;;12.53;3.80;;;;;;;;;;5004071;28;20227;-59
2022/02/18 05:29:15;;;;;;;15.83;4.33;;;;;;;;;;5025680;28;20719;-59
2022/02/18 05:31:41;;;;;;;11.17;3.10;;;;;;;;;;5026714;28;20214;-58
2022/02/18 05:34:07;;;;;;;6.80;3.23;;;;;;;;;;5020875;28;20178;-59
2022/02/18 05:36:34;;;;;;;13.00;3.40;;;;;;;;;;5029286;28;20721;-59
2022/02/18 05:39:00;;;;;;;8.33;3.50;;;;;;;;;;5021105;28;20178;-59
2022/02/18 05:41:27;;;;;;;11.53;3.77;;;;;;;;;;5012653;28;20173;-59
2022/02/18 05:43:53;;;;;;;15.10;4.03;;;;;;;;;;5019846;28;20265;-58
2022/02/18 05:46:19;;;;;;;8.30;4.27;;;;;;;;;;5023505;28;20506;-59
2022/02/18 05:48:45;;;;;;;15.77;3.87;;;;;;;;;;5049289;28;20205;-59
2022/02/18 05:51:12;;;;;;;10.90;3.83;;;;;;;;;;5029284;28;20275;-58
2022/02/18 05:53:38;;;;;;;7.90;3.57;;;;;;;;;;5041936;28;20173;-59
2022/02/18 05:56:04;;;;;;;10.63;3.07;;;;;;;;;;5008288;28;20201;-59
2022/02/18 05:58:32;;;;;;;10.50;3.63;;;;;;;;;;5028482;28;20224;-59
2022/02/18 06:00:58;;;;;;;9.07;2.90;;;;;;;;;;5047222;28;20178;-58
2022/02/18 06:03:25;;;;;;;13.43;4.30;;;;;;;;;;5009437;28;20200;-58
2022/02/18 06:05:51;;;;;;;11.23;2.97;;;;;;;;;;5026610;28;20194;-58
2022/02/18 06:08:17;;;;;;;6.10;3.13;;;;;;;;;;5035391;28;20185;-58
2022/02/18 06:10:43;;;;;;;8.50;3.55;;;;;;;;;;5028037;28;20420;-59
2022/02/18 06:13:10;;;;;;;11.17;4.37;;;;;;;;;;5023979;28;20189;-59
2022/02/18 06:15:36;;;;;;;6.33;3.20;;;;;;;;;;5034206;28;20642;-58
2022/02/18 06:18:03;;;;;;;10.10;3.20;;;;;;;;;;5027057;28;20197;-58
2022/02/18 06:20:29;;;;;;;6.47;2.73;;;;;;;;;;5010751;28;20262;-58
2022/02/18 06:22:55;;;;;;;8.33;2.67;;;;;;;;;;5022266;28;20177;-58
2022/02/18 06:25:22;;;;;;;10.87;3.03;;;;;;;;;;5021329;28;20200;-58
2022/02/18 06:27:48;;;;;;;9.33;2.23;;;;;;;;;;5008346;28;20618;-58
2022/02/18 06:30:14;;;;;;;9.30;3.43;;;;;;;;;;5008664;28;20178;-58
2022/02/18 06:32:43;;;;;;;9.33;4.17;;;;;;;;;;4990245;28;20319;-59
2022/02/18 06:35:09;;;;;;;9.53;3.93;;;;;;;;;;4990046;28;20385;-57
2022/02/18 06:37:36;;;;;;;8.20;2.90;;;;;;;;;;4990166;28;20570;-59
2022/02/18 06:40:02;;;;;;;10.23;3.50;;;;;;;;;;5012818;28;20202;-59
2022/02/18 06:42:28;;;;;;;12.43;2.73;;;;;;;;;;5004221;28;20231;-58
2022/02/18 06:44:54;;;;;;;11.00;3.47;;;;;;;;;;5018117;28;20182;-58
2022/02/18 06:47:21;;;;;;;14.37;3.47;;;;;;;;;;4991523;28;20176;-58
2022/02/18 06:49:47;;;;;;;11.20;3.33;;;;;;;;;;4995676;28;20530;-59
2022/02/18 06:52:13;;;;;;;10.70;3.20;;;;;;;;;;5005052;28;20179;-58
2022/02/18 06:54:39;;;;;;;13.53;3.23;;;;;;;;;;5011735;28;20228;-59
2022/02/18 06:57:05;;;;;;;17.67;3.70;;;;;;;;;;5028604;28;20214;-58
2022/02/18 06:59:32;;;;;;;16.90;3.47;;;;;;;;;;5022137;28;20182;-59
2022/02/18 07:02:04;;;;;;;6.80;3.13;;;;;;;;;;4990589;28;20170;-59
2022/02/18 07:04:33;;;;;;;15.83;2.97;;;;;;;;;;4992292;28;20285;-58
2022/02/18 07:06:59;;;;;;;13.17;3.50;;;;;;;;;;5028061;28;20193;-58
2022/02/18 07:09:28;;;;;;;12.33;3.10;;;;;;;;;;5023977;28;20185;-58
2022/02/18 07:11:55;;;;;;;11.07;3.57;;;;;;;;;;4990755;28;20697;-58
2022/02/18 07:14:22;;;;;;;16.20;4.23;;;;;;;;;;5011462;28;20557;-59
2022/02/18 07:16:48;;;;;;;14.37;3.53;;;;;;;;;;4990559;28;20691;-59
2022/02/18 07:19:17;;;;;;;10.43;3.00;;;;;;;;;;4989647;28;20571;-59
2022/02/18 07:21:43;;;;;;;7.43;2.60;;;;;;;;;;5008494;28;20738;-59
2022/02/18 07:24:10;;;;;;;9.70;3.23;;;;;;;;;;5005567;28;20214;-58
2022/02/18 07:26:37;;;;;;;9.83;3.10;;;;;;;;;;4996634;28;20245;-57
2022/02/18 07:29:04;;;;;;;10.27;3.00;;;;;;;;;;5022935;28;20213;-57
2022/02/18 07:31:30;;;;;;;14.23;5.97;;;;;;;;;;5025867;28;20181;-57
2022/02/18 07:33:57;;;;;;;16.70;4.50;;;;;;;;;;5013524;28;20438;-59
2022/02/18 07:36:23;;;;;;;12.87;3.93;;;;;;;;;;5027773;28;20198;-61
2022/02/18 07:38:49;;;;;;;12.43;3.83;;;;;;;;;;5027613;28;20680;-59
2022/02/18 07:41:16;;;;;;;15.00;3.70;;;;;;;;;;5026431;28;20232;-58
2022/02/18 07:43:42;;;;;;;16.17;5.13;;;;;;;;;;5027306;28;20715;-57
2022/02/18 07:46:08;;;;;;;14.43;4.23;;;;;;;;;;5030104;28;20178;-60
2022/02/18 07:48:34;;;;;;;15.40;4.33;;;;;;;;;;5026442;28;20659;-58
2022/02/18 07:51:06;;;;;;;12.53;4.50;;;;;;;;;;5026091;28;20196;-59
2022/02/18 07:53:35;;;;;;;11.63;3.80;;;;;;;;;;5030164;28;20315;-60
2022/02/18 07:56:01;;;;;;;11.37;3.57;;;;;;;;;;5029728;28;20215;-59
2022/02/18 07:58:27;;;;;;;12.10;3.70;;;;;;;;;;5030278;28;20182;-58
2022/02/18 08:00:53;;;;;;;32.20;4.63;;;;;;;;;;5030863;28;20228;-59
2022/02/18 08:03:25;;;;;;;27.87;4.47;;;;;;;;;;5010275;28;20669;-58
2022/02/18 08:05:53;;;;;;;10.23;3.50;;;;;;;;;;5026647;28;20276;-58
2022/02/18 08:08:20;;;;;;;10.50;3.93;;;;;;;;;;5029618;28;20238;-58
2022/02/18 08:10:47;;;;;;;17.57;4.47;;;;;;;;;;5031039;28;20185;-59
2022/02/18 08:13:14;;;;;;;12.97;3.50;;;;;;;;;;5013866;28;20209;-57
2022/02/18 08:15:43;;;;;;;14.07;4.03;;;;;;;;;;5046650;28;20197;-59
2022/02/18 08:18:11;;;;;;;13.07;4.07;;;;;;;;;;5041850;28;20173;-58
2022/02/18 08:20:38;;;;;;;17.77;4.53;;;;;;;;;;5031826;28;20272;-58
2022/02/18 08:23:04;;;;;;;16.77;5.20;;;;;;;;;;5049054;28;20177;-59
2022/02/18 08:25:30;;;;;;;20.17;4.77;;;;;;;;;;5035496;28;20221;-58
2022/02/18 08:27:57;;;;;;;15.97;4.40;;;;;;;;;;5010647;28;20218;-57
2022/02/18 08:30:23;;;;;;;9.60;4.07;;;;;;;;;;5020658;28;20196;-58
2022/02/18 08:32:49;;;;;;;13.87;4.10;;;;;;;;;;5028436;28;20696;-58
2022/02/18 08:35:15;;;;;;;15.13;3.67;;;;;;;;;;5033038;28;20750;-58
2022/02/18 08:37:41;;;;;;;13.43;3.93;;;;;;;;;;5032129;28;20178;-58
2022/02/18 08:40:08;;;;;;;11.10;3.30;;;;;;;;;;5017922;28;20575;-58
2022/02/18 08:42:34;;;;;;;15.43;4.07;;;;;;;;;;5024975;28;20520;-59
2022/02/18 08:45:00;;;;;;;15.87;3.73;;;;;;;;;;5031719;28;20666;-59
2022/02/18 08:47:30;;;;;;;12.10;3.83;;;;;;;;;;5028661;28;20570;-58
2022/02/18 08:49:56;;;;;;;10.53;3.57;;;;;;;;;;5015800;28;20182;-58
2022/02/18 08:52:22;;;;;;;16.83;4.87;;;;;;;;;;5030514;28;20576;-58
2022/02/18 08:54:48;;;;;;;12.83;4.27;;;;;;;;;;5030082;28;20199;-58
2022/02/18 08:57:14;;;;;;;13.70;4.37;;;;;;;;;;5030482;28;20573;-58
2022/02/18 08:59:41;;;;;;;9.50;3.90;;;;;;;;;;5040726;28;20209;-58
2022/02/18 09:02:09;;;;;;;14.60;4.03;;;;;;;;;;5028639;28;20186;-59
2022/02/18 09:04:35;;;;;;;12.77;3.37;;;;;;;;;;5026908;28;20699;-59
2022/02/18 09:07:05;;;;;;;12.90;3.87;;;;;;;;;;5024245;28;20187;-58
2022/02/18 09:09:31;;;;;;;18.43;4.17;;;;;;;;;;5012196;28;20193;-59
2022/02/18 09:11:58;;;;;;;12.77;3.50;;;;;;;;;;5027336;28;20188;-59
2022/02/18 09:14:24;;;;;;;11.60;3.57;;;;;;;;;;5014921;28;20215;-58
2022/02/18 09:16:52;;;;;;;13.97;3.77;;;;;;;;;;5040849;28;20205;-59
2022/02/18 09:19:24;;;;;;;13.90;3.87;;;;;;;;;;5026591;28;20634;-58
2022/02/18 09:21:50;;;;;;;15.97;4.47;;;;;;;;;;5029795;28;20872;-58
2022/02/18 09:24:19;;;;;;;15.27;5.43;;;;;;;;;;5044056;28;20252;-58
2022/02/18 09:26:47;;;;;;;11.93;3.90;;;;;;;;;;5026721;28;20271;-58
2022/02/18 09:29:22;;;;;;;14.33;3.60;;;;;;;;;;5035108;28;20179;-58
2022/02/18 09:31:48;;;;;;;13.47;3.60;;;;;;;;;;5033767;28;20176;-58
2022/02/18 09:34:14;;;;;;;10.67;3.47;;;;;;;;;;5035290;28;20653;-59
2022/02/18 09:36:41;;;;;;;12.00;3.50;;;;;;;;;;5031576;28;20205;-58
2022/02/18 09:39:10;;;;;;;9.63;3.20;;;;;;;;;;5016048;28;20613;-59
2022/02/18 09:41:42;;;;;;;6.27;3.00;;;;;;;;;;5027179;28;20220;-58
2022/02/18 09:44:12;;;;;;;9.70;3.10;;;;;;;;;;5026526;28;20260;-58
2022/02/18 09:46:42;;;;;;;6.27;2.57;;;;;;;;;;5030234;28;20212;-59
2022/02/18 09:49:10;;;;;;;11.90;2.47;;;;;;;;;;5013870;28;20684;-58
2022/02/18 09:51:37;;;;;;;8.57;2.73;;;;;;;;;;5027462;28;20193;-59
2022/02/18 09:54:04;;;;;;;8.73;3.43;;;;;;;;;;5037358;28;20251;-58
2022/02/18 09:56:35;;;;;;;9.83;3.10;;;;;;;;;;5031114;28;20205;-58
2022/02/18 09:59:03;;;;;;;8.60;2.87;;;;;;;;;;5031066;28;20173;-58
2022/02/18 10:01:29;;;;;;;5.50;2.07;;;;;;;;;;5040329;28;20177;-59
2022/02/18 10:03:58;;;;;;;7.10;2.43;;;;;;;;;;5026072;28;20189;-59
2022/02/18 10:06:27;;;;;;;6.50;3.17;;;;;;;;;;5008079;28;20231;-58
2022/02/18 10:08:54;;;;;;;8.23;2.43;;;;;;;;;;5042348;28;20345;-58
2022/02/18 10:11:27;;;;;;;7.07;2.83;;;;;;;;;;5011389;28;20178;-58
2022/02/18 10:13:57;;;;;;;5.97;2.37;;;;;;;;;;5031766;28;20178;-58
2022/02/18 10:16:24;;;;;;;7.17;2.83;;;;;;;;;;5012601;28;20194;-59
2022/02/18 10:18:57;;;;;;;5.93;2.30;;;;;;;;;;5011973;28;20236;-59
2022/02/18 10:21:34;;;;;;;4.67;2.37;;;;;;;;;;5026408;28;20227;-58
2022/02/18 10:24:16;;;;;;;8.07;2.47;;;;;;;;;;5009953;28;20598;-59
2022/02/18 10:26:54;;;;;;;6.40;2.53;;;;;;;;;;5040133;28;20212;-59
2022/02/18 10:29:26;;;;;;;6.73;2.47;;;;;;;;;;5027657;28;20173;-59
2022/02/18 10:32:09;;;;;;;6.60;2.13;;;;;;;;;;5020235;28;20192;-59
2022/02/18 10:34:55;;;;;;;6.57;2.30;;;;;;;;;;4997207;28;20187;-59
2022/02/18 10:37:22;;;;;;;5.27;2.33;;;;;;;;;;5028005;28;20194;-58
2022/02/18 10:39:49;;;;;;;6.20;2.20;;;;;;;;;;5007844;28;20205;-58
2022/02/18 10:42:17;;;;;;;5.13;2.60;;;;;;;;;;5006011;28;20606;-59
2022/02/18 10:44:45;;;;;;;3.33;1.90;;;;;;;;;;5009017;28;20177;-58
2022/02/18 10:47:22;;;;;;;4.47;2.17;;;;;;;;;;5028336;28;20181;-59
2022/02/18 10:49:48;;;;;;;7.10;2.43;;;;;;;;;;5009211;28;20184;-58
2022/02/18 10:52:19;;;;;;;4.63;2.10;;;;;;;;;;5026983;28;20371;-58
2022/02/18 10:54:45;;;;;;;2.97;1.60;;;;;;;;;;5027839;28;20170;-58
2022/02/18 10:57:14;;;;;;;4.93;2.50;;;;;;;;;;5028305;28;20303;-58
2022/02/18 10:59:40;;;;;;;4.77;2.13;;;;;;;;;;5032542;28;20801;-58
2022/02/18 11:02:07;;;;;;;4.00;2.17;;;;;;;;;;5047032;28;20177;-58
2022/02/18 11:04:33;;;;;;;5.83;2.43;;;;;;;;;;5042405;28;20197;-59
2022/02/18 11:07:13;;;;;;;5.97;2.13;;;;;;;;;;5024109;28;20208;-58
2022/02/18 11:09:40;;;;;;;3.87;2.07;;;;;;;;;;5008934;28;20228;-59
2022/02/18 11:12:11;;;;;;;3.83;2.00;;;;;;;;;;5024280;28;20181;-58
2022/02/18 11:14:38;;;;;;;3.13;2.10;;;;;;;;;;5013629;28;20166;-58
2022/02/18 11:17:07;;;;;;;6.07;2.07;;;;;;;;;;5028157;28;20270;-58
2022/02/18 11:19:35;;;;;;;2.87;1.70;;;;;;;;;;5024871;28;20629;-59
2022/02/18 11:22:01;;;;;;;4.70;1.60;;;;;;;;;;5015254;28;20206;-58
2022/02/18 11:24:29;;;;;;;2.00;1.37;;;;;;;;;;5009160;28;20193;-58
2022/02/18 11:26:59;;;;;;;4.77;1.60;;;;;;;;;;5010688;28;20213;-58
2022/02/18 11:29:29;;;;;;;2.50;1.60;;;;;;;;;;5030971;28;20692;-59
2022/02/18 11:31:58;;;;;;;7.10;1.53;;;;;;;;;;5030147;28;20930;-59
2022/02/18 11:34:43;;;;;;;3.67;1.47;;;;;;;;;;5031653;28;20702;-58
2022/02/18 11:37:09;;;;;;;1.50;1.10;;;;;;;;;;5031870;28;20193;-58
2022/02/18 11:39:55;;;;;;;1.40;0.90;;;;;;;;;;5030511;28;20204;-59
2022/02/18 11:42:40;;;;;;;1.80;1.17;;;;;;;;;;5031669;28;20170;-59
2022/02/18 11:45:13;;;;;;;1.17;0.97;;;;;;;;;;5028729;28;20250;-59
2022/02/18 11:47:40;;;;;;;1.60;0.90;;;;;;;;;;5033260;28;20180;-58
2022/02/18 11:50:10;;;;;;;1.00;0.90;;;;;;;;;;5041235;28;20192;-59
2022/02/18 11:52:48;;;;;;;0.70;0.70;;;;;;;;;;5012200;28;20178;-59
2022/02/18 11:55:31;;;;;;;1.10;0.90;;;;;;;;;;5018969;28;20208;-58
2022/02/18 11:58:11;;;;;;;0.80;0.80;;;;;;;;;;5011833;28;20670;-58
2022/02/18 12:00:51;;;;;;;0.80;0.80;;;;;;;;;;5049414;28;20181;-58
2022/02/18 12:03:22;;;;;;;3.57;1.10;;;;;;;;;;5025739;28;20635;-58
2022/02/18 12:06:10;;;;;;;0.90;0.63;;;;;;;;;;5016014;28;20662;-59
2022/02/18 12:08:46;;;;;;;2.63;0.80;;;;;;;;;;5051090;28;20965;-59
2022/02/18 12:11:13;;;;;;;1.23;0.63;;;;;;;;;;5038673;28;20325;-59
2022/02/18 12:14:01;;;;;;;0.80;0.80;;;;;;;;;;5065937;28;20181;-59
2022/02/18 12:16:27;;;;;;;0.97;0.63;;;;;;;;;;4992776;28;20292;-59
2022/02/18 12:19:10;;;;;;;3.93;0.90;;;;;;;;;;5008740;28;20514;-59
2022/02/18 12:21:57;;;;;;;0.87;0.70;;;;;;;;;;5018646;28;20913;-59
2022/02/18 12:24:43;;;;;;;1.00;0.70;;;;;;;;;;5029628;28;20174;-58
2022/02/18 12:27:21;;;;;;;0.70;0.60;;;;;;;;;;5030387;28;20225;-57
2022/02/18 12:29:48;;;;;;;0.73;0.67;;;;;;;;;;5035724;28;20663;-59
2022/02/18 12:32:14;;;;;;;1.10;0.67;;;;;;;;;;5036331;28;20592;-58
2022/02/18 12:34:44;;;;;;;0.60;0.60;;;;;;;;;;5017432;28;20197;-60
2022/02/18 12:37:15;;;;;;;0.80;0.80;;;;;;;;;;5034541;28;20732;-57
2022/02/18 12:39:42;;;;;;;0.80;0.80;;;;;;;;;;5042785;28;20520;-58
2022/02/18 12:42:09;;;;;;;0.70;0.70;;;;;;;;;;5049454;28;20195;-58
2022/02/18 12:44:43;;;;;;;2.03;0.80;;;;;;;;;;5044496;28;20184;-58
2022/02/18 12:47:10;;;;;;;0.80;0.80;;;;;;;;;;5027622;28;20273;-58
2022/02/18 12:49:40;;;;;;;3.77;1.33;;;;;;;;;;5036042;28;20211;-57
2022/02/18 12:52:10;;;;;;;1.03;0.70;;;;;;;;;;5014535;28;20182;-58
2022/02/18 12:54:53;;;;;;;0.70;0.70;;;;;;;;;;5028453;28;20607;-58
2022/02/18 12:57:21;;;;;;;0.73;0.73;;;;;;;;;;5041705;28;20209;-58
2022/02/18 12:59:55;;;;;;;1.33;1.33;;;;;;;;;;5028290;28;20546;-58
2022/02/18 13:02:40;;;;;;;1.10;1.10;;;;;;;;;;5042875;28;20187;-57
2022/02/18 13:05:20;;;;;;;0.70;0.70;;;;;;;;;;5043621;28;20640;-58
2022/02/18 13:07:47;;;;;;;0.80;0.80;;;;;;;;;;5046306;28;20380;-58
2022/02/18 13:10:16;;;;;;;1.13;1.00;;;;;;;;;;5055103;28;20190;-58
2022/02/18 13:12:44;;;;;;;0.77;0.77;;;;;;;;;;5025393;28;20189;-58
2022/02/18 13:15:15;;;;;;;0.83;0.83;;;;;;;;;;5020083;28;20205;-58
2022/02/18 13:17:46;;;;;;;0.70;0.70;;;;;;;;;;5027828;28;20178;-58
2022/02/18 13:20:16;;;;;;;0.90;0.90;;;;;;;;;;5038975;28;20174;-59
2022/02/18 13:22:44;;;;;;;0.67;0.67;;;;;;;;;;5031568;28;20173;-59
2022/02/18 13:25:23;;;;;;;0.80;0.80;;;;;;;;;;5039430;28;20234;-58
2022/02/18 13:27:50;;;;;;;1.60;0.70;;;;;;;;;;5040183;28;20209;-59
2022/02/18 13:30:23;;;;;;;3.20;1.50;;;;;;;;;;5027693;28;20554;-58
2022/02/18 13:33:01;;;;;;;1.07;0.80;;;;;;;;;;5047016;28;20195;-58
2022/02/18 13:35:29;;;;;;;3.30;0.97;;;;;;;;;;5032780;28;20210;-58
2022/02/18 13:37:55;;;;;;;1.27;0.90;;;;;;;;;;5029896;28;20177;-58
2022/02/18 13:40:24;;;;;;;1.07;0.77;;;;;;;;;;5027292;28;20223;-58
2022/02/18 13:42:54;;;;;;;1.23;0.83;;;;;;;;;;5027094;28;20551;-58
2022/02/18 13:45:20;;;;;;;0.83;0.83;;;;;;;;;;5027569;28;20186;-57
2022/02/18 13:47:47;;;;;;;0.80;0.80;;;;;;;;;;5026860;28;20520;-58
2022/02/18 13:50:14;;;;;;;0.63;0.63;;;;;;;;;;5024986;28;20296;-58
2022/02/18 13:52:42;;;;;;;1.03;0.80;;;;;;;;;;5029074;28;20182;-58
2022/02/18 13:55:08;;;;;;;1.30;0.80;;;;;;;;;;5029515;28;20181;-58
2022/02/18 13:57:35;;;;;;;1.33;0.73;;;;;;;;;;5030168;28;20213;-58
2022/02/18 14:00:02;;;;;;;0.80;0.80;;;;;;;;;;5041157;28;20182;-58
2022/02/18 14:02:28;;;;;;;0.70;0.70;;;;;;;;;;5017405;28;20605;-58
2022/02/18 14:04:57;;;;;;;0.60;0.60;;;;;;;;;;5018916;28;20192;-58
2022/02/18 14:07:30;;;;;;;0.70;0.70;;;;;;;;;;5014736;28;20204;-59
2022/02/18 14:09:59;;;;;;;1.40;1.30;;;;;;;;;;5040420;28;20192;-59
2022/02/18 14:12:39;;;;;;;1.00;0.97;;;;;;;;;;5029533;28;20586;-59
2022/02/18 14:15:06;;;;;;;0.97;0.77;;;;;;;;;;5029027;28;20543;-60
2022/02/18 14:17:33;;;;;;;2.13;1.47;;;;;;;;;;5041416;28;20166;-59
2022/02/18 14:20:00;;;;;;;1.87;1.30;;;;;;;;;;5026614;28;20177;-59
2022/02/18 14:22:31;;;;;;;3.23;2.83;;;;;;;;;;5030579;28;20185;-59
2022/02/18 14:24:58;;;;;;;7.63;3.40;;;;;;;;;;5043330;28;20189;-59
2022/02/18 14:27:25;;;;;;;5.80;3.60;;;;;;;;;;5029224;28;20217;-59
2022/02/18 14:29:59;;;;;;;8.17;4.70;;;;;;;;;;5031268;28;20238;-59
2022/02/18 14:32:33;;;;;;;8.23;3.37;;;;;;;;;;5048199;28;20252;-59
2022/02/18 14:35:13;;;;;;;4.70;2.80;;;;;;;;;;5013216;28;20254;-59
2022/02/18 14:37:41;;;;;;;5.63;2.23;;;;;;;;;;5044774;28;20193;-59
2022/02/18 14:40:15;;;;;;;6.17;2.30;;;;;;;;;;5047953;28;20230;-59
2022/02/18 14:42:42;;;;;;;4.60;1.67;;;;;;;;;;5013954;28;20181;-59
2022/02/18 14:45:09;;;;;;;3.10;1.87;;;;;;;;;;5029835;28;20545;-59